Terminal Aerodrome Forecast
Issued by NWS Mt. Holly, NJ

Home | Current Version | Previous Version | Text Only | Print | Product List | Glossary On
Versions: 1 2 3 4 5 6 7 8 9 10 11 12 13 14 15 16 17 18 19 20 21 22 23 24 25 26 27 28 29 30 31 32 33 34 35 36 37 38
668
FTUS41 KPHI 210520
TAFACY
TAF
KACY 210520Z 2106/2206 11005KT P6SM VCSH OVC050
      TEMPO 2106/2109 4SM -RA BR OVC025
     FM210900 10006KT 4SM -RA OVC015
     FM211600 11012G25KT 4SM RA BR OVC015
     FM211900 11015G26KT 4SM RA BR OVC008
     FM212200 10015G26KT 4SM RA BR OVC008 WS020/12040KT
     FM220000 10012G24KT 4SM RA BR OVC005=

USA.gov is the U.S. government's official web portal to all federal, state and local government web resources and services.